• Join FlightAware (Why Join?)
  • Login
  • US Flag 
08:08AM EDT


 

Airport Tracker/Info


-or-


 

Live Flight TrackerFlight Track Log ✈ N400PU ✈ 25-Sep-2013 ✈ KLAF - KCHO

Flight Track Log - Related Links

Times and Time Zones

All times are in EDT time to prevent confusion due to time zone crossing. See the N400PU flight status page for this flight to view local times or setup timezone preferences in your user account.

Time Position Orientation Groundspeed Altitude Reporting Facility
EDT Latitude Longitude Course Direction KTS MPH feet Rate Location/Type
11:12AM 40.4081 -86.9003 91° East 196 226 2,000  Level Chicago Center
11:13AM 40.4067 -86.8047 91° East 199 229 5,500 2,100 Climbing Chicago Center
11:14AM 40.3967 -86.7142 98° East 250 288 7,500 2,520 Climbing Chicago Center
11:15AM 40.3839 -86.5958 98° East 273 314 10,800 2,880 Climbing Chicago Center
11:17AM 40.3722 -86.4906 98° East 278 320 13,500 2,400 Climbing Chicago Center
11:18AM 40.3603 -86.3947 99° East 280 322 15,800 2,100 Climbing Chicago Center
11:19AM 40.3481 -86.2900 99° East 290 334 17,900 1,920 Climbing Chicago Center
11:20AM 40.3328 -86.1811 100° East 304 350 19,800 1,800 Climbing Chicago Center
11:21AM 40.3092 -86.0694 105° East 315 362 21,700 1,800 Climbing Chicago Center
11:22AM 40.2847 -85.9592 106° East 316 364 23,600 1,560 Climbing Chicago Center
11:23AM 40.2550 -85.8247 106° East 319 367 25,000 660 Climbing Chicago Center
11:24AM 40.2272 -85.6958 106° East 360 414 25,000  Level Chicago Center
11:25AM 40.1961 -85.5558 106° East 392 451 25,000  Level Chicago Center
11:26AM 40.1625 -85.4067 106° East 414 476 25,000 780 Level Chicago Center
11:27AM 40.1264 -85.2564 107° East 428 493 26,700 1,980 Climbing Chicago Center
11:28AM 40.0931 -85.1150 107° East 424 488 29,100 1,980 Climbing Chicago Center
11:29AM 40.0639 -84.9842 106° East 400 460 30,900 1,620 Climbing Chicago Center
11:30AM 40.0275 -84.8286 107° East 383 441 32,500 960 Climbing Chicago Center
11:31AM 39.9972 -84.7000 107° East 377 434 33,000 660 Climbing Chicago Center
11:32AM 39.9586 -84.5300 106° East 387 445 34,200 900 Climbing Indianapolis Center
11:33AM 39.9203 -84.3711 107° East 385 443 35,200 840 Climbing Indianapolis Center
11:34AM 39.8892 -84.2397 107° East 382 440 36,000 720 Climbing Indianapolis Center
11:35AM 39.8578 -84.1089 107° East 381 438 36,700 480 Climbing Indianapolis Center
11:36AM 39.8264 -83.9772 107° East 383 441 37,000 120 Climbing Indianapolis Center
11:37AM 39.7933 -83.8411 108° East 397 457 37,000  Level Indianapolis Center
11:39AM 39.7589 -83.7000 108° East 412 474 37,000  Level Indianapolis Center
11:40AM 39.7158 -83.5292 108° East 425 489 37,000  Level Indianapolis Center
11:41AM 39.6814 -83.3825 107° East 435 501 37,000  Level Indianapolis Center
11:42AM 39.6450 -83.2342 108° East 437 503 37,000  Level Indianapolis Center
11:43AM 39.6078 -83.0825 108° East 443 510 37,000  Level Indianapolis Center
11:44AM 39.5703 -82.9311 108° East 443 510 37,000  Level Indianapolis Center
11:45AM 39.5242 -82.7522 108° East 440 506 37,000 -300 Level Indianapolis Center
11:46AM 39.4875 -82.6064 108° East 431 496 36,500 -960 Descending Indianapolis Center
11:47AM 39.4497 -82.4594 108° East 433 498 35,100 -1,440 Descending Indianapolis Center
11:48AM 39.4108 -82.3072 108° East 436 502 33,600 -1,080 Descending Indianapolis Center
11:49AM 39.3736 -82.1622 108° East 428 493 33,000 -300 Descending Indianapolis Center
11:50AM 39.3347 -82.0136 109° East 432 497 33,000  Level Indianapolis Center
11:51AM 39.2950 -81.8642 109° East 438 504 33,000  Level Indianapolis Center
11:52AM 39.2567 -81.7156 108° East 435 501 33,000  Level Indianapolis Center
11:53AM 39.2175 -81.5675 109° East 433 498 33,000  Level Indianapolis Center
11:54AM 39.1689 -81.3869 109° East 439 505 33,000  Level Indianapolis Center
11:55AM 39.1275 -81.2331 109° East 448 516 33,000 -540 Level Indianapolis Center
11:56AM 39.0881 -81.0822 109° East 444 511 32,000 -1,380 Descending Indianapolis Center
11:57AM 39.0467 -80.9319 109° East 443 510 30,200 -1,020 Descending Indianapolis Center
11:58AM 39.0044 -80.7839 110° East 441 507 30,000 -120 Descending Indianapolis Center
11:59AM 38.9539 -80.6431 115° Southeast 433 498 30,000  Level Indianapolis Center
12:00PM 38.9017 -80.4994 115° Southeast 440 506 30,000 -360 Level Indianapolis Center
12:01PM 38.8511 -80.3547 114° Southeast 443 510 29,300 -1,260 Descending Indianapolis Center
12:02PM 38.8011 -80.2158 115° Southeast 433 498 27,400 -2,100 Descending Indianapolis Center
12:03PM 38.7406 -80.0500 115° Southeast 427 491 25,100 -2,100 Descending Indianapolis Center
12:04PM 38.6897 -79.9144 116° Southeast 422 486 23,200 -1,980 Descending Indianapolis Center
12:05PM 38.6414 -79.7817 115° Southeast 413 475 21,100 -2,100 Descending Indianapolis Center
12:06PM 38.5892 -79.6464 116° Southeast 401 461 19,000 -1,980 Descending Indianapolis Center
12:07PM 38.5439 -79.5225 115° Southeast 397 457 17,100 -1,920 Descending Indianapolis Center
12:08PM 38.4997 -79.4019 115° Southeast 387 445 15,100 -1,980 Descending Indianapolis Center
12:09PM 38.4603 -79.2958 115° Southeast 376 433 13,100 -2,040 Descending Washington Center
12:10PM 38.4217 -79.1906 115° Southeast 349 402 11,000 -1,560 Descending Washington Center
12:11PM 38.3808 -79.0881 117° Southeast 308 354 10,000 -600 Descending Washington Center
12:12PM 38.3461 -78.9936 115° Southeast 297 342 9,900 -1,020 Descending Washington Center
12:13PM 38.3111 -78.9047 117° Southeast 287 330 8,000 -2,040 Descending Washington Center
12:14PM 38.2781 -78.8133 115° Southeast 282 325 6,000 -1,560 Descending Washington Center
12:15PM 38.2528 -78.7436 115° Southeast 257 296 4,900 -600 Descending Washington Center
12:16PM 38.2217 -78.6628 116° Southeast 251 289 4,900 -180 Level Washington Center
12:17PM 38.1942 -78.5931 117° Southeast 239 275 4,600 -1,020 Descending Washington Center
12:18PM 38.1647 -78.5206 117° Southeast 225 259 3,000 -1,140 Descending Washington Center
12:21PM 38.1000 -78.4667 147° Southeast 150 173 1,100 -900 Descending Potomac TRACON
12:23PM 38.1333 -78.4500 108° East  Level FlightAware Approximate
12:30PM 38.1396 -78.4523 108° East  Level Estimated